createdAt,value
2022-11-11T00:00:33.893Z,10.07
2022-11-11T00:03:24.864Z,10.07
2022-11-11T00:09:11.281Z,14.23
2022-11-11T00:11:57.707Z,12.75
2022-11-11T00:14:44.215Z,13.05
2022-11-11T00:17:48.977Z,8.63
2022-11-11T00:20:55.003Z,13.10
2022-11-11T00:24:00.152Z,19.73
2022-11-11T00:26:46.666Z,12.85
2022-11-11T00:29:32.887Z,9.25
2022-11-11T00:32:27.344Z,15.70
2022-11-11T00:35:32.545Z,8.50
2022-11-11T00:38:38.211Z,12.18
2022-11-11T00:41:27.300Z,11.70
2022-11-11T00:44:13.518Z,14.95
2022-11-11T00:47:18.691Z,11.67
2022-11-11T00:50:26.228Z,12.50
2022-11-11T00:53:19.341Z,11.10
2022-11-11T00:56:07.778Z,10.98
2022-11-11T00:58:54.280Z,10.38
2022-11-11T01:01:40.591Z,9.43
2022-11-11T01:04:26.709Z,10.70
2022-11-11T01:07:13.085Z,14.00
2022-11-11T01:09:59.249Z,10.75
2022-11-11T01:12:45.531Z,14.18
2022-11-11T01:15:33.783Z,9.80
2022-11-11T01:18:23.695Z,11.07
2022-11-11T01:21:24.622Z,14.02
2022-11-11T01:24:11.439Z,12.65
2022-11-11T01:26:57.878Z,11.18
2022-11-11T01:29:44.017Z,15.87
2022-11-11T01:32:30.446Z,11.80
2022-11-11T01:35:16.462Z,14.98
2022-11-11T01:38:02.643Z,12.45
2022-11-11T01:40:50.287Z,15.68
2022-11-11T01:43:36.828Z,9.77
2022-11-11T01:46:31.919Z,11.48
2022-11-11T01:49:59.051Z,15.15
2022-11-11T01:52:45.912Z,9.68
2022-11-11T01:55:32.736Z,10.20
2022-11-11T01:58:21.042Z,11.50
2022-11-11T02:01:08.089Z,11.98
2022-11-11T02:04:15.957Z,13.05
2022-11-11T02:07:07.189Z,11.63
2022-11-11T02:09:54.699Z,11.02
2022-11-11T02:13:00.002Z,11.30
2022-11-11T02:15:46.272Z,18.05
2022-11-11T02:18:33.364Z,15.23
2022-11-11T02:21:52.064Z,12.85
2022-11-11T02:24:39.435Z,14.50
2022-11-11T02:27:27.874Z,16.63
2022-11-11T02:30:17.072Z,14.43
2022-11-11T02:33:03.499Z,15.95
2022-11-11T02:35:59.138Z,19.60
2022-11-11T02:38:45.808Z,12.13
2022-11-11T02:41:50.977Z,16.87
2022-11-11T02:44:40.585Z,15.98
2022-11-11T02:47:27.435Z,7.72
2022-11-11T02:50:13.767Z,10.48
2022-11-11T02:52:59.925Z,10.10
2022-11-11T02:55:46.496Z,13.20
2022-11-11T02:58:33.428Z,10.23
2022-11-11T03:01:23.843Z,12.60
2022-11-11T03:04:10.058Z,13.32
2022-11-11T03:06:56.124Z,16.70
2022-11-11T03:09:42.247Z,13.67
2022-11-11T03:12:28.524Z,11.20
2022-11-11T03:15:14.720Z,13.50
2022-11-11T03:18:00.845Z,10.75
2022-11-11T03:21:38.146Z,8.85
2022-11-11T03:24:11.660Z,10.40
2022-11-11T03:26:58.117Z,14.23
2022-11-11T03:29:44.385Z,10.13
2022-11-11T03:32:30.263Z,6.47
2022-11-11T03:35:16.634Z,12.95
2022-11-11T03:38:16.555Z,9.50
2022-11-11T03:41:02.414Z,12.95
2022-11-11T03:43:48.652Z,9.35
2022-11-11T03:46:34.998Z,10.32
2022-11-11T03:49:21.332Z,8.98
2022-11-11T03:52:07.886Z,11.20
2022-11-11T03:54:54.079Z,8.98
2022-11-11T03:57:45.461Z,11.98
2022-11-11T04:00:31.940Z,9.32
2022-11-11T04:03:38.191Z,15.00
2022-11-11T04:06:43.336Z,8.93
2022-11-11T04:09:48.335Z,14.10
2022-11-11T04:12:56.413Z,15.43
2022-11-11T04:16:00.876Z,13.70
2022-11-11T04:19:05.877Z,11.23
2022-11-11T04:21:51.647Z,11.77
2022-11-11T04:24:56.702Z,10.55
2022-11-11T04:27:42.801Z,9.60
2022-11-11T04:30:29.035Z,11.13
2022-11-11T04:33:14.859Z,14.65
2022-11-11T04:36:00.776Z,10.90
2022-11-11T04:39:05.363Z,12.48
2022-11-11T04:42:07.534Z,13.98
2022-11-11T04:45:13.314Z,17.52
2022-11-11T04:48:06.597Z,14.98
2022-11-11T04:50:52.612Z,12.47
2022-11-11T04:53:38.860Z,14.25
2022-11-11T04:56:43.741Z,13.13
2022-11-11T04:59:30.063Z,16.38
2022-11-11T05:02:34.962Z,10.85
2022-11-11T05:05:21.884Z,13.43
2022-11-11T05:08:27.284Z,11.52
2022-11-11T05:11:14.645Z,12.75
2022-11-11T05:14:21.128Z,8.95
2022-11-11T05:17:28.205Z,11.05
2022-11-11T05:20:38.566Z,14.27
2022-11-11T05:23:45.383Z,20.27
2022-11-11T05:26:32.381Z,11.82
2022-11-11T05:29:18.294Z,12.60
2022-11-11T05:32:05.612Z,11.95
2022-11-11T05:34:52.088Z,12.47
2022-11-11T05:37:38.082Z,16.65
2022-11-11T05:40:24.366Z,12.20
2022-11-11T05:43:10.355Z,11.05
2022-11-11T05:45:56.468Z,12.70
2022-11-11T05:49:02.335Z,10.43
2022-11-11T05:51:48.239Z,15.93
2022-11-11T05:54:34.153Z,8.20
2022-11-11T05:57:20.455Z,11.95
2022-11-11T06:00:06.850Z,20.00
2022-11-11T06:02:53.103Z,14.93
2022-11-11T06:05:39.415Z,11.43
2022-11-11T06:08:25.485Z,12.25
2022-11-11T06:11:11.458Z,18.58
2022-11-11T06:13:58.128Z,14.45
2022-11-11T06:16:43.940Z,12.17
2022-11-11T06:19:30.046Z,13.32
2022-11-11T06:22:35.964Z,13.23
2022-11-11T06:25:45.278Z,13.02
2022-11-11T06:28:31.254Z,14.32
2022-11-11T06:31:26.205Z,14.50
2022-11-11T06:34:12.869Z,11.45
2022-11-11T06:36:58.885Z,14.13
2022-11-11T06:39:44.848Z,16.38
2022-11-11T06:42:37.028Z,11.20
2022-11-11T06:45:24.172Z,12.80
2022-11-11T06:48:10.515Z,11.38
2022-11-11T06:51:03.959Z,16.05
2022-11-11T06:53:50.112Z,12.63
2022-11-11T06:56:35.928Z,9.05
2022-11-11T06:59:22.156Z,10.93
2022-11-11T07:02:13.496Z,13.77
2022-11-11T07:05:00.622Z,11.32
2022-11-11T07:07:46.591Z,9.40
2022-11-11T07:10:34.482Z,12.43
2022-11-11T07:13:20.945Z,8.00
2022-11-11T07:16:07.556Z,12.88
2022-11-11T07:18:53.533Z,11.95
2022-11-11T07:21:40.098Z,7.65
2022-11-11T07:24:26.518Z,9.73
2022-11-11T07:27:12.863Z,8.63
2022-11-11T07:29:58.669Z,7.10
2022-11-11T07:32:46.905Z,7.25
2022-11-11T07:35:33.280Z,12.20
2022-11-11T07:38:19.558Z,9.02
2022-11-11T07:41:05.832Z,14.03
2022-11-11T07:43:51.901Z,8.10
2022-11-11T07:46:38.044Z,8.30
2022-11-11T07:49:24.182Z,14.55
2022-11-11T07:52:10.318Z,11.10
2022-11-11T07:54:56.682Z,12.00
2022-11-11T07:57:42.931Z,15.75
2022-11-11T08:00:29.070Z,16.58
2022-11-11T08:03:14.936Z,15.20
2022-11-11T08:06:03.234Z,9.55
2022-11-11T08:08:49.966Z,15.20
2022-11-11T08:12:08.497Z,15.63
2022-11-11T08:14:54.680Z,15.73
2022-11-11T08:17:41.192Z,11.68
2022-11-11T08:20:27.458Z,10.75
2022-11-11T08:26:28.850Z,13.88
2022-11-11T08:29:16.013Z,15.52
2022-11-11T08:32:02.232Z,14.52
2022-11-11T08:34:48.599Z,16.63
2022-11-11T08:37:35.233Z,16.70
2022-11-11T08:40:22.200Z,13.15
2022-11-11T08:43:08.261Z,16.63
2022-11-11T08:45:54.573Z,15.27
2022-11-11T08:48:40.786Z,18.02
2022-11-11T08:51:26.896Z,18.90
2022-11-11T08:54:12.942Z,12.52
2022-11-11T08:56:59.224Z,13.43
2022-11-11T08:59:45.634Z,18.35
2022-11-11T09:02:31.822Z,17.15
2022-11-11T09:05:18.569Z,18.90
2022-11-11T09:08:07.395Z,19.20
2022-11-11T09:10:53.434Z,18.33
2022-11-11T09:13:40.664Z,13.68
2022-11-11T09:16:26.801Z,16.90
2022-11-11T09:19:13.074Z,13.43
2022-11-11T09:21:59.350Z,13.88
2022-11-11T09:24:45.456Z,14.23
2022-11-11T09:27:31.249Z,14.27
2022-11-11T09:30:17.340Z,14.02
2022-11-11T09:33:04.935Z,14.07
2022-11-11T09:35:50.924Z,17.75
2022-11-11T09:38:37.334Z,17.88
2022-11-11T09:42:07.265Z,19.48
2022-11-11T09:45:05.742Z,14.80
2022-11-11T09:47:54.298Z,17.73
2022-11-11T09:50:54.444Z,12.18
2022-11-11T09:53:49.159Z,15.88
2022-11-11T09:56:38.478Z,14.05
2022-11-11T09:59:32.432Z,17.63
2022-11-11T10:02:29.774Z,16.20
2022-11-11T10:05:22.224Z,16.45
2022-11-11T10:08:13.505Z,17.40
2022-11-11T10:11:01.289Z,15.43
2022-11-11T10:13:47.679Z,15.25
2022-11-11T10:16:48.509Z,13.40
2022-11-11T10:20:01.736Z,16.65
2022-11-11T10:22:53.553Z,15.13
2022-11-11T10:25:47.271Z,15.45
2022-11-11T10:28:39.372Z,16.80
2022-11-11T10:31:26.204Z,13.80
2022-11-11T10:34:16.527Z,14.88
2022-11-11T10:37:03.588Z,13.75
2022-11-11T10:40:08.140Z,17.08
2022-11-11T10:42:54.472Z,13.65
2022-11-11T10:45:49.742Z,10.53
2022-11-11T10:48:53.918Z,17.00
2022-11-11T10:52:07.982Z,12.73
2022-11-11T10:55:09.989Z,16.08
2022-11-11T10:58:02.304Z,12.43
2022-11-11T11:00:51.608Z,14.23
2022-11-11T11:03:43.068Z,21.95
2022-11-11T11:06:34.795Z,12.23
2022-11-11T11:09:29.747Z,13.32
2022-11-11T11:12:40.425Z,12.48
2022-11-11T11:15:30.031Z,16.07
2022-11-11T11:18:18.692Z,15.70
2022-11-11T11:21:07.191Z,14.45
2022-11-11T11:23:53.011Z,15.50
2022-11-11T11:26:47.282Z,13.70
2022-11-11T11:29:39.747Z,13.00
2022-11-11T11:32:31.718Z,12.45
2022-11-11T11:35:38.157Z,11.18
2022-11-11T11:38:42.159Z,9.90
2022-11-11T11:41:42.675Z,11.38
2022-11-11T11:44:28.667Z,12.97
2022-11-11T11:47:25.761Z,9.15
2022-11-11T11:50:27.080Z,10.95
2022-11-11T11:53:39.159Z,12.15
2022-11-11T11:56:42.003Z,10.00
2022-11-11T11:59:46.859Z,15.60
2022-11-11T12:02:58.216Z,11.15
2022-11-11T12:05:50.718Z,12.75
2022-11-11T12:08:58.430Z,11.65
2022-11-11T12:12:07.154Z,17.67
2022-11-11T12:15:11.216Z,11.83
2022-11-11T12:18:16.858Z,11.38
2022-11-11T12:21:17.202Z,15.45
2022-11-11T12:24:40.159Z,13.52
2022-11-11T12:27:44.780Z,14.77
2022-11-11T12:30:33.812Z,18.87
2022-11-11T12:33:34.567Z,16.65
2022-11-11T12:36:20.145Z,12.10
2022-11-11T12:39:44.234Z,15.90
2022-11-11T12:43:06.956Z,15.02
2022-11-11T12:46:16.368Z,14.67
2022-11-11T12:49:20.675Z,15.70
2022-11-11T12:52:38.305Z,11.07
2022-11-11T12:56:28.158Z,14.15
2022-11-11T12:59:35.886Z,18.02
2022-11-11T13:02:30.679Z,15.00
2022-11-11T13:05:47.436Z,11.95
2022-11-11T13:08:52.646Z,11.13
2022-11-11T13:11:56.629Z,14.25
2022-11-11T13:15:04.117Z,10.50
2022-11-11T13:17:51.428Z,14.43
2022-11-11T13:20:40.155Z,13.73
2022-11-11T13:23:26.950Z,13.85
2022-11-11T13:26:44.294Z,15.18
2022-11-11T13:29:39.201Z,12.88
2022-11-11T13:32:32.322Z,13.63
2022-11-11T13:35:21.875Z,15.40
2022-11-11T13:38:24.617Z,15.10
2022-11-11T13:41:11.583Z,13.80
2022-11-11T13:44:01.491Z,13.70
2022-11-11T13:46:50.056Z,16.63
2022-11-11T13:49:54.379Z,13.38
2022-11-11T13:53:06.949Z,14.70
2022-11-11T13:56:00.733Z,17.48
2022-11-11T13:58:49.725Z,14.85
2022-11-11T14:01:42.299Z,18.23
2022-11-11T14:04:29.039Z,16.55
2022-11-11T14:07:44.403Z,15.98
2022-11-11T14:10:36.516Z,22.35
2022-11-11T14:13:24.004Z,16.70
2022-11-11T14:16:12.261Z,16.87
2022-11-11T14:18:58.440Z,16.95
2022-11-11T14:21:48.152Z,15.90
2022-11-11T14:24:38.786Z,13.63
2022-11-11T14:27:31.041Z,17.98
2022-11-11T14:30:32.607Z,10.77
2022-11-11T14:33:55.566Z,14.25
2022-11-11T14:36:57.647Z,18.60
2022-11-11T14:39:55.751Z,12.77
2022-11-11T14:42:44.812Z,17.58
2022-11-11T14:45:32.623Z,15.47
2022-11-11T14:48:47.016Z,17.50
2022-11-11T14:51:39.154Z,12.05
2022-11-11T14:54:33.797Z,10.85
2022-11-11T14:57:24.637Z,17.70
2022-11-11T15:00:16.554Z,14.23
2022-11-11T15:03:20.972Z,9.98
2022-11-11T15:06:28.524Z,14.98
2022-11-11T15:09:35.525Z,11.25
2022-11-11T15:12:49.837Z,12.73
2022-11-11T15:15:55.499Z,16.13
2022-11-11T15:18:44.351Z,13.43
2022-11-11T15:21:36.541Z,10.23
2022-11-11T15:24:36.068Z,14.85
2022-11-11T15:27:45.553Z,10.18
2022-11-11T15:30:56.253Z,9.43
2022-11-11T15:34:13.110Z,12.05
2022-11-11T15:37:03.929Z,11.02
2022-11-11T15:39:52.888Z,13.90
2022-11-11T15:42:46.190Z,11.85
2022-11-11T15:45:35.978Z,13.73
2022-11-11T15:48:26.419Z,15.23
2022-11-11T15:51:30.210Z,14.73
2022-11-11T15:54:16.838Z,11.43
2022-11-11T15:57:30.599Z,12.65
2022-11-11T16:00:25.624Z,12.40
2022-11-11T16:03:41.771Z,15.68
2022-11-11T16:06:28.215Z,14.05
2022-11-11T16:09:19.070Z,16.02
2022-11-11T16:12:05.613Z,11.38
2022-11-11T16:14:55.476Z,9.53
2022-11-11T16:17:42.917Z,12.20
2022-11-11T16:20:38.500Z,9.57
2022-11-11T16:23:26.448Z,12.05
2022-11-11T16:26:22.164Z,12.90
2022-11-11T16:29:15.713Z,12.00
2022-11-11T16:32:03.716Z,13.52
2022-11-11T16:34:50.786Z,13.93
2022-11-11T16:37:52.336Z,9.45
2022-11-11T16:40:43.674Z,11.00
2022-11-11T16:43:34.775Z,10.47
2022-11-11T16:46:36.352Z,13.07
2022-11-11T16:49:28.136Z,9.35
2022-11-11T16:52:21.219Z,11.95
2022-11-11T16:55:10.477Z,11.30
2022-11-11T16:58:03.682Z,14.20
2022-11-11T17:00:58.834Z,10.52
2022-11-11T17:03:59.485Z,9.45
2022-11-11T17:06:47.381Z,15.32
2022-11-11T17:09:41.423Z,13.57
2022-11-11T17:12:31.786Z,13.30
2022-11-11T17:15:20.590Z,9.77
2022-11-11T17:18:09.028Z,21.80
2022-11-11T17:20:56.928Z,15.98
2022-11-11T17:23:43.109Z,26.55
2022-11-11T17:26:29.298Z,13.13
2022-11-11T17:29:15.893Z,7.45
2022-11-11T17:32:02.276Z,4.90
2022-11-11T17:34:48.432Z,4.50
2022-11-11T17:37:38.238Z,3.88
2022-11-11T17:40:24.548Z,4.63
2022-11-11T17:43:10.942Z,3.95
2022-11-11T17:46:01.186Z,6.65
2022-11-11T17:48:47.600Z,2.70
2022-11-11T17:51:33.846Z,5.22
2022-11-11T17:54:20.233Z,4.47
2022-11-11T17:57:06.576Z,6.63
2022-11-11T17:59:52.774Z,7.90
2022-11-11T18:02:38.964Z,4.15
2022-11-11T18:05:25.102Z,4.32
2022-11-11T18:08:11.347Z,7.00
2022-11-11T18:11:06.270Z,5.82
2022-11-11T18:13:53.049Z,6.65
2022-11-11T18:16:38.917Z,9.30
2022-11-11T18:19:25.337Z,7.97
2022-11-11T18:22:11.469Z,8.73
2022-11-11T18:24:57.904Z,8.38
2022-11-11T18:27:45.683Z,10.00
2022-11-11T18:30:31.723Z,6.30
2022-11-11T18:33:18.670Z,7.80
2022-11-11T18:36:08.758Z,7.93
2022-11-11T18:38:56.352Z,9.07
2022-11-11T18:41:42.740Z,9.93
2022-11-11T18:44:28.600Z,7.28
2022-11-11T18:47:15.172Z,10.68
2022-11-11T18:50:01.081Z,10.67
2022-11-11T18:52:47.442Z,9.60
2022-11-11T18:55:33.926Z,7.43
2022-11-11T18:58:19.927Z,8.73
2022-11-11T19:01:12.414Z,7.72
2022-11-11T19:04:04.476Z,8.30
2022-11-11T19:06:50.831Z,5.82
2022-11-11T19:09:37.089Z,7.57
2022-11-11T19:12:22.917Z,7.13
2022-11-11T19:15:09.799Z,8.13
2022-11-11T19:17:55.686Z,10.03
2022-11-11T19:20:42.044Z,8.93
2022-11-11T19:23:30.242Z,6.75
2022-11-11T19:26:17.554Z,11.25
2022-11-11T19:29:06.022Z,8.32
2022-11-11T19:31:52.318Z,9.77
2022-11-11T19:34:38.545Z,8.30
2022-11-11T19:37:24.574Z,10.60
2022-11-11T19:40:11.121Z,14.52
2022-11-11T19:42:57.495Z,8.73
2022-11-11T19:45:44.224Z,9.77
2022-11-11T19:48:30.562Z,8.85
2022-11-11T19:51:19.487Z,10.02
2022-11-11T19:54:05.628Z,8.80
2022-11-11T19:56:51.622Z,7.18
2022-11-11T19:59:37.634Z,6.07
2022-11-11T20:02:23.793Z,8.20
2022-11-11T20:05:10.247Z,6.72
2022-11-11T20:07:57.739Z,7.93
2022-11-11T20:10:46.268Z,9.73
2022-11-11T20:13:33.991Z,9.63
2022-11-11T20:16:22.459Z,5.22
2022-11-11T20:19:10.797Z,7.13
2022-11-11T20:21:57.109Z,8.07
2022-11-11T20:24:43.175Z,8.50
2022-11-11T20:27:29.517Z,7.53
2022-11-11T20:30:15.419Z,8.88
2022-11-11T20:33:01.523Z,12.73
2022-11-11T20:35:47.742Z,7.53
2022-11-11T20:38:34.251Z,9.23
2022-11-11T20:41:20.617Z,8.97
2022-11-11T20:44:06.700Z,9.43
2022-11-11T20:46:52.872Z,8.48
2022-11-11T20:49:39.367Z,7.53
2022-11-11T20:52:25.763Z,9.82
2022-11-11T20:55:12.070Z,8.37
2022-11-11T20:57:58.010Z,6.45
2022-11-11T21:00:44.239Z,7.28
2022-11-11T21:03:31.959Z,6.28
2022-11-11T21:06:18.981Z,6.70
2022-11-11T21:09:07.870Z,6.67
2022-11-11T21:11:53.939Z,7.15
2022-11-11T21:14:40.253Z,9.18
2022-11-11T21:17:26.475Z,5.05
2022-11-11T21:20:12.250Z,6.60
2022-11-11T21:22:58.666Z,9.67
2022-11-11T21:25:44.896Z,6.75
2022-11-11T21:28:38.387Z,7.57
2022-11-11T21:31:29.159Z,9.15
2022-11-11T21:34:16.217Z,8.00
2022-11-11T21:37:02.148Z,9.13
2022-11-11T21:39:48.442Z,7.60
2022-11-11T21:42:34.251Z,6.43
2022-11-11T21:45:20.579Z,7.75
2022-11-11T21:48:06.826Z,7.18
2022-11-11T21:50:52.900Z,10.13
2022-11-11T21:53:41.653Z,4.53
2022-11-11T21:56:29.699Z,7.18
2022-11-11T21:59:15.595Z,10.85
2022-11-11T22:02:01.888Z,7.40
2022-11-11T22:04:48.016Z,8.60
2022-11-11T22:07:34.464Z,8.98
2022-11-11T22:10:21.156Z,7.68
2022-11-11T22:13:07.236Z,8.27
2022-11-11T22:16:05.026Z,7.43
2022-11-11T22:19:02.635Z,9.50
2022-11-11T22:21:50.000Z,10.20
2022-11-11T22:24:36.027Z,5.82
2022-11-11T22:27:22.082Z,7.57
2022-11-11T22:30:08.954Z,8.18
2022-11-11T22:32:54.978Z,6.53
2022-11-11T22:35:41.276Z,9.95
2022-11-11T22:38:28.077Z,9.55
2022-11-11T22:41:19.015Z,8.02
2022-11-11T22:44:05.131Z,7.32
2022-11-11T22:46:51.435Z,5.47
2022-11-11T22:49:37.319Z,7.47
2022-11-11T22:52:23.569Z,7.15
2022-11-11T22:55:09.687Z,10.48
2022-11-11T22:57:55.929Z,9.43
2022-11-11T23:00:42.002Z,10.67
2022-11-11T23:03:27.790Z,8.07
2022-11-11T23:06:19.399Z,8.43
2022-11-11T23:09:06.112Z,7.32
2022-11-11T23:11:52.704Z,9.05
2022-11-11T23:14:39.320Z,6.67
2022-11-11T23:17:25.428Z,9.98
2022-11-11T23:20:12.747Z,10.20
2022-11-11T23:22:58.892Z,7.00
2022-11-11T23:25:44.931Z,9.43
2022-11-11T23:28:31.181Z,7.63
2022-11-11T23:31:28.825Z,7.75
2022-11-11T23:34:14.738Z,9.70
2022-11-11T23:37:06.559Z,8.30
2022-11-11T23:39:53.764Z,8.55
2022-11-11T23:42:40.042Z,9.57
2022-11-11T23:45:26.020Z,7.40
2022-11-11T23:48:12.321Z,7.18
2022-11-11T23:50:58.374Z,6.38
2022-11-11T23:53:45.032Z,10.02
2022-11-11T23:56:31.629Z,8.87
2022-11-11T23:59:18.182Z,8.35
